| time (UTC) | temp F | wind direction | speed knots | gust knots | rain 1hr in | rain 24hr in | rain mn in | humidity % | barometer mb |
| 20260510180028 | 83 | 62 | 2.6 | 7.8 | 0.00 | 0.40 | 0.00 | 68 | 1016.7 |
| 20260510174525 | 81 | 115 | 0.9 | 6.1 | 0.00 | 0.43 | 0.00 | 71 | 1016.9 |
| 20260510173027 | 83 | 31 | 0.9 | 3.5 | 0.00 | 0.45 | 0.00 | 68 | 1017.1 |
| 20260510171517 | 83 | 32 | 2.6 | 5.2 | 0.00 | 0.47 | 0.00 | 66 | 1017.2 |
| 20260510170004 | 81 | 176 | 0.0 | 6.1 | 0.00 | 0.56 | 0.00 | 70 | 1017.3 |
| 20260510164503 | 80 | 113 | 0.0 | 4.3 | 0.00 | 0.61 | 0.00 | 74 | 1017.4 |
| 20260510163008 | 79 | 80 | 1.7 | 7.8 | 0.00 | 0.64 | 0.00 | 74 | 1017.5 |
| 20260510161512 | 77 | 51 | 1.7 | 5.2 | 0.00 | 0.65 | 0.00 | 79 | 1017.6 |
| 20260510160020 | 77 | 63 | 0.0 | 0.0 | 0.00 | 0.67 | 0.00 | 76 | 1017.5 |
| 20260510154504 | 78 | 76 | 0.0 | 0.0 | 0.00 | 0.72 | 0.00 | 80 | 1017.4 |
| 20260510153007 | 75 | 51 | 0.0 | 0.0 | 0.00 | 0.77 | 0.00 | 83 | 1017.3 |
| 20260510151511 | 75 | 59 | 0.0 | 0.0 | 0.00 | 0.79 | 0.00 | 84 | 1017.3 |
| 20260510150021 | 73 | 31 | 0.0 | 0.0 | 0.00 | 0.84 | 0.00 | 90 | 1017.6 |
| 20260510144532 | 72 | 148 | 0.0 | 0.0 | 0.00 | 0.90 | 0.00 | 95 | 1017.6 |
| 20260510143008 | 70 | 46 | 0.0 | 0.0 | 0.00 | 1.00 | 0.00 | 95 | 1017.7 |
| 20260510141514 | 68 | 56 | 0.0 | 0.0 | 0.00 | 1.04 | 0.00 | 95 | 1017.8 |
| 20260510140013 | 68 | 69 | 0.0 | 0.0 | 0.00 | 1.04 | 0.00 | 95 | 1017.7 |
| 20260510134521 | 68 | 57 | 0.0 | 0.0 | 0.00 | 1.09 | 0.00 | 95 | 1017.6 |
| 20260510133032 | 68 | 37 | 0.0 | 5.2 | 0.00 | 1.12 | 0.00 | 95 | 1017.3 |
| 20260510131505 | 67 | 67 | 0.0 | 0.0 | 0.00 | 1.16 | 0.00 | 95 | 1017.2 |
| 20260510130009 | 66 | 62 | 0.0 | 0.0 | 0.00 | 1.24 | 0.00 | 95 | 1017.2 |
| 20260510124518 | 66 | 51 | 0.0 | 0.0 | 0.00 | 1.59 | 0.00 | 95 | 1016.9 |
| 20260510123023 | 66 | 66 | 0.0 | 0.0 | 0.00 | 1.96 | 0.00 | 95 | 1016.7 |
| 20260510121525 | 66 | 51 | 0.0 | 0.0 | 0.00 | 1.96 | 0.00 | 95 | 1016.6 |
| 20260510120028 | 66 | 61 | 0.0 | 0.0 | 0.00 | 1.96 | 0.00 | 95 | 1016.3 |
| 20260510114512 | 65 | 61 | 0.0 | 0.0 | 0.00 | 1.96 | 0.00 | 95 | 1016.0 |
| 20260510113019 | 65 | 62 | 0.0 | 0.0 | 0.00 | 1.96 | 0.00 | 95 | 1015.7 |
| 20260510111521 | 65 | 69 | 0.0 | 0.0 | 0.00 | 1.96 | 0.00 | 95 | 1015.2 |
| 20260510110026 | 65 | 65 | 0.0 | 0.0 | 0.00 | 1.96 | 0.00 | 95 | 1014.9 |
| 20260510104535 | 65 | 70 | 0.0 | 0.0 | 0.00 | 1.96 | 0.00 | 95 | 1014.6 |
| 20260510103016 | 65 | 61 | 0.0 | 0.0 | 0.00 | 1.96 | 0.00 | 95 | 1014.3 |
| 20260510101519 | 65 | 58 | 0.0 | 0.0 | 0.00 | 1.96 | 0.00 | 95 | 1014.2 |
| 20260510100026 | 65 | 71 | 0.0 | 0.0 | 0.00 | 1.96 | 0.00 | 95 | 1014.1 |
| 20260510094529 | 66 | 63 | 0.0 | 0.0 | 0.00 | 1.96 | 0.00 | 95 | 1014.0 |
| 20260510093035 | 66 | 79 | 0.0 | 0.0 | 0.00 | 1.96 | 0.00 | 95 | 1013.9 |
| 20260510091517 | 66 | 21 | 0.0 | 0.0 | 0.00 | 1.97 | 0.00 | 95 | 1014.0 |
| 20260510090024 | 66 | 30 | 0.0 | 0.0 | 0.00 | 1.98 | 0.00 | 95 | 1014.1 |
| 20260510084531 | 66 | 59 | 0.0 | 0.0 | 0.00 | 2.06 | 0.00 | 95 | 1014.0 |
| 20260510083035 | 66 | 16 | 0.0 | 0.0 | 0.00 | 2.09 | 0.00 | 95 | 1013.8 |
| 20260510081539 | 66 | 53 | 0.0 | 0.0 | 0.00 | 2.25 | 0.00 | 95 | 1013.7 |
| 20260510080027 | 66 | 41 | 0.0 | 0.0 | 0.00 | 2.25 | 0.00 | 95 | 1013.6 |
| 20260510074524 | 66 | 41 | 0.0 | 0.0 | 0.00 | 2.25 | 0.00 | 95 | 1013.5 |
| 20260510073028 | 66 | 41 | 0.0 | 0.0 | 0.00 | 2.25 | 0.00 | 95 | 1013.5 |
| 20260510071529 | 67 | 65 | 0.0 | 0.0 | 0.00 | 2.25 | 0.00 | 94 | 1013.4 |
| 20260510070004 | 67 | 23 | 0.0 | 0.0 | 0.00 | 2.25 | 0.00 | 94 | 1013.5 |
| 20260510064505 | 67 | 352 | 0.0 | 0.0 | 0.00 | 2.25 | 0.00 | 95 | 1013.7 |
| 20260510063004 | 67 | 5 | 0.0 | 0.0 | 0.00 | 2.25 | 0.00 | 95 | 1013.8 |
| 20260510061508 | 67 | 37 | 0.0 | 0.0 | 0.00 | 2.25 | 0.00 | 95 | 1013.8 |
| 20260510060002 | 67 | 53 | 0.0 | 0.0 | 0.00 | 2.25 | 0.00 | 95 | 1013.8 |
| 20260510054509 | 67 | 350 | 0.0 | 0.0 | 0.00 | 2.32 | 0.00 | 94 | 1013.7 |
| 20260510053005 | 67 | 350 | 0.0 | 0.0 | 0.00 | 2.56 | 0.00 | 94 | 1013.8 |
| 20260510051516 | 67 | 314 | 0.0 | 0.0 | 0.00 | 2.62 | 0.00 | 94 | 1013.9 |
| 20260510050012 | 67 | 314 | 0.0 | 0.0 | 0.00 | 2.62 | 0.00 | 94 | 1013.8 |
| 20260510044507 | 67 | 306 | 0.0 | 0.0 | 0.00 | 2.62 | 2.62 | 94 | 1013.9 |
| 20260510043004 | 67 | 153 | 0.0 | 0.0 | 0.00 | 2.62 | 2.62 | 94 | 1013.5 |
| 20260510041505 | 67 | 40 | 0.0 | 0.0 | 0.00 | 2.62 | 2.62 | 94 | 1013.6 |
| 20260510040010 | 68 | 40 | 0.0 | 0.0 | 0.00 | 2.62 | 2.62 | 94 | 1013.6 |
| 20260510034517 | 68 | 40 | 0.0 | 0.0 | 0.00 | 2.62 | 2.62 | 94 | 1014.1 |
| 20260510033005 | 68 | 342 | 0.0 | 0.0 | 0.00 | 2.62 | 2.62 | 94 | 1014.8 |
| 20260510031505 | 68 | 126 | 0.0 | 0.0 | 0.00 | 2.62 | 2.62 | 94 | 1014.5 |
| 20260510030008 | 68 | 126 | 0.0 | 0.0 | 0.00 | 2.62 | 2.62 | 94 | 1013.9 |
| 20260510024512 | 68 | 259 | 0.0 | 0.0 | 0.00 | 2.62 | 2.62 | 94 | 1014.2 |
| 20260510023016 | 68 | 259 | 0.0 | 0.0 | 0.00 | 2.62 | 2.62 | 94 | 1014.1 |
| 20260510021505 | 68 | 298 | 0.0 | 0.0 | 0.01 | 2.62 | 2.62 | 94 | 1014.4 |
| 20260510020005 | 68 | 225 | 0.0 | 3.5 | 0.02 | 2.62 | 2.62 | 94 | 1013.3 |
| 20260510014507 | 68 | 156 | 0.0 | 0.0 | 0.02 | 2.62 | 2.62 | 94 | 1012.7 |
| 20260510013016 | 68 | 60 | 0.0 | 0.0 | 0.02 | 2.62 | 2.62 | 94 | 1012.8 |
| 20260510011522 | 68 | 179 | 0.0 | 0.0 | 0.01 | 2.61 | 2.61 | 94 | 1013.1 |
| 20260510010004 | 68 | 250 | 0.0 | 0.0 | 0.00 | 2.60 | 2.60 | 94 | 1013.7 |
| 20260510004506 | 68 | 142 | 0.0 | 0.0 | 0.00 | 2.60 | 2.60 | 94 | 1012.9 |
| 20260510003014 | 68 | 77 | 0.0 | 0.0 | 0.01 | 2.60 | 2.60 | 94 | 1013.0 |
| 20260510001517 | 68 | 113 | 0.0 | 0.0 | 0.01 | 2.60 | 2.60 | 94 | 1012.8 |
| 20260510000024 | 68 | 144 | 0.0 | 0.0 | 0.01 | 2.61 | 2.60 | 94 | 1013.1 |
| 20260509234508 | 68 | 131 | 0.0 | 0.0 | 0.02 | 2.62 | 2.60 | 94 | 1013.2 |
| 20260509233011 | 68 | 161 | 0.0 | 0.0 | 0.01 | 2.61 | 2.59 | 94 | 1013.7 |
| 20260509231519 | 68 | 160 | 0.0 | 0.0 | 0.03 | 2.61 | 2.59 | 94 | 1013.4 |
| 20260509230024 | 68 | 160 | 0.0 | 0.0 | 0.03 | 2.63 | 2.59 | 94 | 1013.4 |
| 20260509224523 | 68 | 160 | 0.0 | 0.0 | 0.03 | 2.65 | 2.58 | 94 | 1012.4 |
| 20260509223010 | 68 | 160 | 0.0 | 0.0 | 0.03 | 2.65 | 2.58 | 94 | 1012.1 |
| 20260509221512 | 68 | 160 | 0.0 | 0.0 | 0.01 | 2.63 | 2.56 | 94 | 1012.5 |
| 20260509220019 | 68 | 212 | 0.0 | 5.2 | 0.01 | 2.64 | 2.56 | 94 | 1012.8 |
| 20260509214520 | 68 | 198 | 0.0 | 0.0 | 0.00 | 2.63 | 2.55 | 94 | 1012.7 |
| 20260509213026 | 68 | 292 | 0.0 | 0.0 | 0.00 | 2.64 | 2.55 | 94 | 1012.7 |
| 20260509211530 | 68 | 179 | 0.0 | 0.0 | 0.01 | 2.66 | 2.55 | 94 | 1011.5 |
| 20260509210018 | 68 | 211 | 0.0 | 4.3 | 0.04 | 2.68 | 2.55 | 94 | 1011.1 |
| 20260509204519 | 68 | 128 | 0.9 | 4.3 | 0.07 | 2.68 | 2.55 | 94 | 1011.5 |
| 20260509203026 | 68 | 148 | 0.0 | 0.0 | 0.11 | 2.69 | 2.55 | 94 | 1011.9 |
| 20260509201507 | 67 | 242 | 0.0 | 5.2 | 0.13 | 2.72 | 2.54 | 94 | 1013.3 |
| 20260509200012 | 68 | 242 | 0.9 | 2.6 | 0.15 | 2.72 | 2.51 | 94 | 1013.5 |
| 20260509194518 | 67 | 179 | 0.0 | 0.0 | 0.14 | 2.71 | 2.48 | 94 | 1012.9 |
| 20260509193004 | 67 | 175 | 0.0 | 0.0 | 0.14 | 2.68 | 2.44 | 94 | 1013.2 |
| 20260509191510 | 67 | 152 | 0.0 | 0.0 | 0.16 | 2.65 | 2.41 | 94 | 1013.6 |
| 20260509190015 | 67 | 150 | 0.0 | 0.0 | 0.14 | 2.60 | 2.35 | 94 | 1013.3 |
| 20260509184515 | 66 | 111 | 0.0 | 0.0 | 0.15 | 2.58 | 2.33 | 94 | 1013.5 |
| 20260509183019 | 66 | 170 | 0.0 | 0.0 | 0.13 | 2.54 | 2.30 | 94 | 1013.6 |
| 20260509181506 | 66 | 196 | 0.0 | 0.0 | 0.10 | 2.49 | 2.25 | 94 | 1013.2 |